Time;durP1;ratioP1;P1;durP2;ratioP2;P2;SDS_P1;SDS_P2;PMS_P1;PMS_P2;Temp;Humidity;BMP_temperature;BMP_pressure;BME280_temperature;BME280_humidity;BME280_pressure;Samples;Min_cycle;Max_cycle;Signal;HPM_P1;HPM_P2
2020/12/28 00:01:50;;;;;;;9.95;7.93;;;;;;;3.08;100.00;97286.69;4975210;28;20479;-85
2020/12/28 00:04:15;;;;;;;10.77;8.30;;;;;;;3.09;100.00;97292.78;4970136;28;20051;-84
2020/12/28 00:06:46;;;;;;;9.90;7.75;;;;;;;3.06;100.00;97286.06;4974076;28;20474;-86
2020/12/28 00:09:11;;;;;;;9.55;8.05;;;;;;;3.07;100.00;97289.50;4990263;28;20406;-83
2020/12/28 00:11:37;;;;;;;12.10;8.63;;;;;;;3.06;100.00;97288.69;4957575;28;20037;-82
2020/12/28 00:14:02;;;;;;;13.00;9.32;;;;;;;3.06;100.00;97298.50;4988823;28;20120;-86
2020/12/28 00:16:27;;;;;;;12.18;8.93;;;;;;;3.09;100.00;97306.03;4993608;28;20038;-84
2020/12/28 00:18:53;;;;;;;15.05;10.57;;;;;;;3.08;100.00;97310.53;4989452;28;20039;-86
2020/12/28 00:21:18;;;;;;;14.23;10.75;;;;;;;3.11;100.00;97302.16;4970107;28;20054;-85
2020/12/28 00:23:44;;;;;;;15.00;10.60;;;;;;;3.11;100.00;97304.81;4975075;28;20030;-83
2020/12/28 00:26:09;;;;;;;13.55;11.25;;;;;;;3.14;100.00;97307.06;4959384;28;20054;-85
2020/12/28 00:28:34;;;;;;;14.55;11.63;;;;;;;3.13;100.00;97294.00;4969424;28;20104;-82
2020/12/28 00:31:00;;;;;;;14.80;11.35;;;;;;;3.14;100.00;97306.25;4955707;28;20045;-84
2020/12/28 00:33:25;;;;;;;15.43;12.52;;;;;;;3.13;100.00;97305.41;4971930;28;20479;-86
2020/12/28 00:35:50;;;;;;;15.18;12.20;;;;;;;3.15;100.00;97302.56;4983901;28;20049;-87
2020/12/28 00:38:16;;;;;;;17.48;12.77;;;;;;;3.16;100.00;97305.03;4983748;28;20045;-87
2020/12/28 00:40:41;;;;;;;19.80;15.25;;;;;;;3.18;100.00;97302.16;4983001;28;20435;-86
2020/12/28 00:43:06;;;;;;;19.23;15.38;;;;;;;3.16;100.00;97302.38;4972758;28;20042;-83
2020/12/28 00:45:32;;;;;;;24.70;18.33;;;;;;;3.17;100.00;97301.34;4970999;28;20533;-84
2020/12/28 00:47:57;;;;;;;27.92;21.35;;;;;;;3.19;100.00;97287.88;4972294;28;20034;-84
2020/12/28 00:50:22;;;;;;;29.73;22.42;;;;;;;3.21;100.00;97291.16;4967325;28;20078;-86
2020/12/28 00:52:48;;;;;;;29.60;21.00;;;;;;;3.17;100.00;97288.09;4967056;28;20126;-82
2020/12/28 00:55:13;;;;;;;31.55;24.55;;;;;;;3.20;100.00;97288.72;4952522;28;20039;-86
2020/12/28 00:57:38;;;;;;;28.58;20.23;;;;;;;3.18;100.00;97291.56;4952037;28;20066;-84
2020/12/28 01:00:05;;;;;;;31.40;24.55;;;;;;;3.18;100.00;97291.56;4969128;28;20123;-83
2020/12/28 01:02:31;;;;;;;35.63;24.30;;;;;;;3.20;100.00;97294.84;4936568;28;20043;-84
2020/12/28 01:04:56;;;;;;;28.75;19.60;;;;;;;3.20;100.00;97301.97;4969218;28;20035;-86
2020/12/28 01:07:22;;;;;;;30.40;22.38;;;;;;;3.19;100.00;97295.84;4968226;28;20348;-84
2020/12/28 01:09:47;;;;;;;29.27;20.27;;;;;;;3.20;100.00;97299.31;4952549;28;20307;-84
2020/12/28 01:12:12;;;;;;;28.90;20.40;;;;;;;3.20;100.00;97305.44;4965338;28;20480;-84
2020/12/28 01:14:38;;;;;;;31.17;19.58;;;;;;;3.20;100.00;97305.44;4950368;28;20039;-84
2020/12/28 01:17:03;;;;;;;27.05;19.85;;;;;;;3.21;100.00;97296.47;4969512;28;20031;-84
2020/12/28 01:19:28;;;;;;;24.40;17.42;;;;;;;3.21;100.00;97301.75;4949115;28;20499;-86
2020/12/28 01:21:57;;;;;;;26.80;18.17;;;;;;;3.21;100.00;97307.06;4952795;28;20046;-84
2020/12/28 01:24:22;;;;;;;28.60;19.57;;;;;;;3.22;100.00;97295.44;4966679;28;20407;-84
2020/12/28 01:26:48;;;;;;;28.35;18.30;;;;;;;3.21;100.00;97293.81;4965053;28;20041;-85
2020/12/28 01:29:13;;;;;;;28.50;19.33;;;;;;;3.20;100.00;97291.38;4947879;28;20129;-85
2020/12/28 01:31:38;;;;;;;31.52;21.38;;;;;;;3.22;100.00;97287.47;4967921;28;20055;-85
2020/12/28 01:34:04;;;;;;;26.67;17.90;;;;;;;3.19;100.00;97290.53;4949165;28;20031;-86
2020/12/28 01:36:29;;;;;;;28.67;18.63;;;;;;;3.19;100.00;97293.19;4966828;28;20031;-86
2020/12/28 01:38:55;;;;;;;29.77;18.67;;;;;;;3.20;100.00;97302.78;4951292;28;20034;-82
2020/12/28 01:41:20;;;;;;;31.15;20.58;;;;;;;3.20;100.00;97305.44;4937003;28;20038;-86
2020/12/28 01:43:46;;;;;;;31.38;20.13;;;;;;;3.21;100.00;97308.91;4949044;28;20053;-85
2020/12/28 01:46:12;;;;;;;27.98;18.70;;;;;;;3.21;100.00;97309.72;4967788;28;20050;-86
2020/12/28 01:48:38;;;;;;;27.83;17.02;;;;;;;3.21;100.00;97319.50;4961932;28;20050;-87
2020/12/28 01:51:04;;;;;;;26.50;18.85;;;;;;;3.21;100.00;97312.34;4953285;28;20517;-84
2020/12/28 01:53:30;;;;;;;28.88;19.17;;;;;;;3.22;100.00;97303.38;4952729;28;20065;-85
2020/12/28 01:56:01;;;;;;;24.50;16.40;;;;;;;3.22;100.00;97308.69;4948782;28;20125;-84
2020/12/28 01:58:27;;;;;;;26.65;17.48;;;;;;;3.21;100.00;97315.00;4977248;28;20130;-87
2020/12/28 02:00:53;;;;;;;23.15;14.82;;;;;;;3.19;100.00;97309.09;4971188;28;20030;-87
2020/12/28 02:03:18;;;;;;;21.63;15.20;;;;;;;3.20;100.00;97317.88;4953026;28;20039;-85
2020/12/28 02:05:44;;;;;;;19.88;12.75;;;;;;;3.19;100.00;97324.97;4954181;28;20066;-86
2020/12/28 02:08:10;;;;;;;21.15;14.40;;;;;;;3.18;100.00;97318.06;4953639;28;20522;-87
2020/12/28 02:10:35;;;;;;;16.75;12.27;;;;;;;3.17;100.00;97327.84;4951089;28;20088;-90
2020/12/28 02:13:00;;;;;;;18.95;12.88;;;;;;;3.17;100.00;97316.44;4945387;28;20538;-89
2020/12/28 02:15:26;;;;;;;16.50;12.07;;;;;;;3.14;100.00;97317.66;4956236;28;20035;-86
2020/12/28 02:17:51;;;;;;;16.95;11.60;;;;;;;3.17;100.00;97321.75;4935153;28;20039;-85
2020/12/28 02:20:16;;;;;;;21.25;15.07;;;;;;;3.17;100.00;97319.91;4954349;28;20046;-90
2020/12/28 02:22:43;;;;;;;18.10;13.18;;;;;;;3.15;100.00;97313.16;4953906;28;20046;-85
2020/12/28 02:25:09;;;;;;;20.25;14.45;;;;;;;3.15;100.00;97318.47;4969914;28;20047;-88
2020/12/28 02:27:34;;;;;;;19.05;13.60;;;;;;;3.15;100.00;97315.81;4969611;28;20043;-87
2020/12/28 02:30:00;;;;;;;18.95;14.13;;;;;;;3.14;100.00;97312.34;4953216;28;20047;-85
2020/12/28 02:32:25;;;;;;;20.55;14.30;;;;;;;3.14;100.00;97316.84;4939356;28;20121;-87
2020/12/28 02:34:51;;;;;;;22.92;13.60;;;;;;;3.12;100.00;97310.94;4949049;28;20043;-86
2020/12/28 02:37:16;;;;;;;19.85;13.73;;;;;;;3.11;100.00;97307.47;4953250;28;20480;-88
2020/12/28 02:39:41;;;;;;;19.88;15.68;;;;;;;3.11;100.00;97310.13;4953801;28;20372;-86
2020/12/28 02:42:07;;;;;;;21.90;15.88;;;;;;;3.08;100.00;97309.69;4937211;28;20042;-86
2020/12/28 02:44:32;;;;;;;17.30;13.35;;;;;;;3.07;100.00;97310.69;4926268;28;20053;-87
2020/12/28 02:46:57;;;;;;;15.02;10.45;;;;;;;2.98;100.00;97312.72;4954349;28;20119;-88
2020/12/28 02:49:23;;;;;;;15.07;9.40;;;;;;;2.98;100.00;97312.72;4937839;28;20050;-88
2020/12/28 02:51:48;;;;;;;12.73;8.93;;;;;;;2.96;100.00;97314.75;4953925;28;20051;-84
2020/12/28 02:54:13;;;;;;;12.40;8.30;;;;;;;2.93;100.00;97316.00;4951795;28;20043;-86
2020/12/28 02:56:39;;;;;;;13.25;10.15;;;;;;;2.96;100.00;97313.94;4953427;28;20043;-85
2020/12/28 02:59:04;;;;;;;13.98;10.82;;;;;;;2.96;100.00;97308.66;4952519;28;20056;-84
2020/12/28 03:01:30;;;;;;;14.68;10.88;;;;;;;2.94;100.00;97322.91;4957077;28;20039;-88
2020/12/28 03:03:55;;;;;;;14.35;9.80;;;;;;;2.94;100.00;97322.91;4953189;28;20047;-87
2020/12/28 03:06:20;;;;;;;15.52;11.20;;;;;;;2.96;100.00;97320.03;4941534;28;20041;-87
2020/12/28 03:08:45;;;;;;;17.90;13.65;;;;;;;2.94;100.00;97320.25;4956708;28;20105;-88
2020/12/28 03:11:11;;;;;;;15.93;12.45;;;;;;;2.91;100.00;97320.66;4937190;28;20047;-85
2020/12/28 03:13:36;;;;;;;16.02;11.75;;;;;;;2.91;100.00;97328.63;4966857;28;20125;-84
2020/12/28 03:16:02;;;;;;;13.57;10.32;;;;;;;2.88;100.00;97328.19;4967971;28;20049;-88
2020/12/28 03:18:30;;;;;;;14.00;9.65;;;;;;;2.86;100.00;97332.88;4959128;28;20039;-85
2020/12/28 03:20:58;;;;;;;12.15;8.73;;;;;;;2.85;100.00;97328.56;4925169;28;20041;-87
2020/12/28 03:23:23;;;;;;;11.00;8.23;;;;;;;2.80;100.00;97329.19;4956144;28;20050;-86
2020/12/28 03:25:48;;;;;;;11.48;7.57;;;;;;;2.78;100.00;97331.22;4939940;28;20124;-87
2020/12/28 03:28:14;;;;;;;10.70;7.78;;;;;;;2.76;100.00;97338.53;4965017;28;20116;-87
2020/12/28 03:30:41;;;;;;;11.00;7.85;;;;;;;2.79;100.00;97324.06;4955347;28;20038;-83
2020/12/28 03:33:09;;;;;;;9.18;6.72;;;;;;;2.74;100.00;97332.63;4925903;28;20038;-84
2020/12/28 03:35:34;;;;;;;8.90;6.88;;;;;;;2.72;100.00;97342.59;4959230;28;20431;-83
2020/12/28 03:37:59;;;;;;;7.10;5.45;;;;;;;2.69;100.00;97335.88;4953595;28;20047;-87
2020/12/28 03:40:27;;;;;;;6.75;5.57;;;;;;;2.66;100.00;97338.09;4965322;28;20440;-84
2020/12/28 03:42:52;;;;;;;6.53;4.95;;;;;;;2.66;100.00;97335.44;4957642;28;20077;-86
2020/12/28 03:45:17;;;;;;;7.85;5.68;;;;;;;2.65;100.00;97344.41;4957310;28;20130;-84
2020/12/28 03:47:43;;;;;;;8.05;6.22;;;;;;;2.66;100.00;97336.25;4940745;28;20039;-84
2020/12/28 03:50:09;;;;;;;8.75;6.30;;;;;;;2.64;100.00;97338.28;4970545;28;20046;-84
2020/12/28 03:52:39;;;;;;;6.63;4.93;;;;;;;2.65;100.00;97339.94;4953285;28;20164;-87
2020/12/28 03:55:08;;;;;;;7.60;5.90;;;;;;;2.65;100.00;97336.47;4952155;28;20093;-84
2020/12/28 03:57:34;;;;;;;8.23;5.57;;;;;;;2.61;100.00;97338.69;4969470;28;20051;-85
2020/12/28 04:00:00;;;;;;;7.07;5.40;;;;;;;2.64;100.00;97348.88;4945132;28;20089;-88
2020/12/28 04:02:26;;;;;;;5.43;3.80;;;;;;;2.57;100.00;97349.88;4973420;28;20034;-86
2020/12/28 04:04:51;;;;;;;6.20;4.88;;;;;;;2.60;100.00;97346.84;4972104;28;20038;-87
2020/12/28 04:07:17;;;;;;;5.65;3.97;;;;;;;2.58;100.00;97343.56;4957766;28;20452;-83
2020/12/28 04:09:42;;;;;;;5.75;4.47;;;;;;;2.60;100.00;97345.00;4970344;28;20046;-88
2020/12/28 04:12:10;;;;;;;7.00;5.25;;;;;;;2.60;100.00;97347.66;4948427;28;20137;-84
2020/12/28 04:14:35;;;;;;;6.03;4.38;;;;;;;2.60;100.00;97352.13;4969520;28;20564;-86
2020/12/28 04:17:01;;;;;;;7.10;5.35;;;;;;;2.63;100.00;97349.09;4970883;28;20047;-85
2020/12/28 04:19:27;;;;;;;6.25;4.55;;;;;;;2.60;100.00;97347.66;4951100;28;20046;-84
2020/12/28 04:21:52;;;;;;;7.28;5.47;;;;;;;2.67;100.00;97339.72;4971137;28;20408;-87
2020/12/28 04:24:18;;;;;;;7.38;5.25;;;;;;;2.66;100.00;97338.09;4954588;28;20055;-84
2020/12/28 04:26:44;;;;;;;8.23;5.90;;;;;;;2.65;100.00;97333.84;4954270;28;20129;-86
2020/12/28 04:29:13;;;;;;;7.53;4.68;;;;;;;2.64;100.00;97330.34;4965797;28;20057;-87
2020/12/28 04:31:42;;;;;;;9.60;6.38;;;;;;;2.65;100.00;97328.53;4972622;28;20051;-83
2020/12/28 04:34:09;;;;;;;6.80;4.50;;;;;;;2.64;100.00;97334.81;4953337;28;20039;-88
2020/12/28 04:36:36;;;;;;;9.05;6.88;;;;;;;2.68;100.00;97341.38;4969179;28;20050;-86
2020/12/28 04:39:06;;;;;;;8.93;5.60;;;;;;;2.67;100.00;97351.13;4970119;28;20046;-88
2020/12/28 04:41:32;;;;;;;9.50;7.55;;;;;;;2.68;100.00;97350.13;4953875;28;20043;-86
2020/12/28 04:44:01;;;;;;;10.60;7.95;;;;;;;2.71;100.00;97343.63;4974565;28;20055;-86
2020/12/28 04:46:29;;;;;;;9.90;7.53;;;;;;;2.70;100.00;97349.91;4953450;28;20491;-88
2020/12/28 04:48:55;;;;;;;11.93;8.85;;;;;;;2.75;100.00;97354.63;4973763;28;20054;-88
2020/12/28 04:51:22;;;;;;;12.82;9.52;;;;;;;2.74;100.00;97345.88;4952674;28;20050;-86
2020/12/28 04:53:52;;;;;;;14.25;10.20;;;;;;;2.79;100.00;97342.63;4954637;28;20122;-83
2020/12/28 04:56:19;;;;;;;15.27;9.68;;;;;;;2.79;100.00;97350.56;4950512;28;20035;-81
2020/12/28 04:58:45;;;;;;;15.43;9.55;;;;;;;2.80;100.00;97360.16;4970511;28;20117;-88
2020/12/28 05:01:10;;;;;;;15.88;9.38;;;;;;;2.79;100.00;97355.84;4954899;28;20398;-89
2020/12/28 05:03:36;;;;;;;16.13;11.13;;;;;;;2.83;100.00;97363.22;4936302;28;20046;-85
2020/12/28 05:06:01;;;;;;;15.80;11.43;;;;;;;2.83;100.00;97360.56;4977733;28;20038;-87
2020/12/28 05:08:26;;;;;;;18.10;12.40;;;;;;;2.85;100.00;97365.66;4969803;28;20050;-88
2020/12/28 05:10:52;;;;;;;17.38;11.73;;;;;;;2.81;100.00;97365.22;4953944;28;20048;-86
2020/12/28 05:13:18;;;;;;;19.85;13.13;;;;;;;2.86;100.00;97367.31;4965797;28;20047;-86
2020/12/28 05:15:57;;;;;;;19.23;12.70;;;;;;;2.88;100.00;97363.44;4937574;28;20129;-85
2020/12/28 05:18:22;;;;;;;;;;;;;;;2.88;100.00;97366.09;4987490;28;20510;-86
2020/12/28 05:20:49;;;;;;;19.60;12.40;;;;;;;2.81;100.00;97367.88;4987966;28;19918;-89
2020/12/28 05:23:16;;;;;;;21.38;14.48;;;;;;;2.82;100.00;97369.53;4984609;28;20075;-87
2020/12/28 05:25:47;;;;;;;23.60;16.85;;;;;;;2.88;100.00;97359.97;4937986;28;20047;-84
2020/12/28 05:28:18;;;;;;;24.45;14.10;;;;;;;2.86;100.00;97368.13;4953866;28;20042;-85
2020/12/28 05:30:45;;;;;;;28.67;16.92;;;;;;;2.89;100.00;97374.84;4972136;28;20043;-86
2020/12/28 05:33:12;;;;;;;24.15;16.75;;;;;;;2.93;100.00;97374.25;4948504;28;20047;-86
2020/12/28 05:35:38;;;;;;;25.25;17.20;;;;;;;2.93;100.00;97371.63;4961814;28;20067;-85
2020/12/28 05:38:05;;;;;;;24.77;17.65;;;;;;;2.94;100.00;97372.44;4955091;28;20055;-84
2020/12/28 05:40:33;;;;;;;27.45;16.40;;;;;;;2.93;100.00;97368.97;4968036;28;20462;-87
2020/12/28 05:42:59;;;;;;;25.83;16.10;;;;;;;2.92;100.00;97371.78;4968861;28;20053;-89
2020/12/28 05:45:25;;;;;;;25.88;16.63;;;;;;;2.93;100.00;97363.66;4967487;28;20047;-86
2020/12/28 05:47:58;;;;;;;24.38;17.75;;;;;;;2.94;100.00;97375.88;4938751;28;20038;-84
2020/12/28 05:50:25;;;;;;;26.65;17.05;;;;;;;2.96;100.00;97367.72;4954078;28;20046;-85
2020/12/28 05:53:00;;;;;;;27.55;17.40;;;;;;;2.93;100.00;97379.56;4959104;28;20934;-87
2020/12/28 05:55:29;;;;;;;25.95;18.15;;;;;;;2.94;100.00;97370.59;4988685;28;20049;-85
2020/12/28 05:57:57;;;;;;;25.15;18.85;;;;;;;2.99;100.00;97377.09;4972680;28;20042;-89
2020/12/28 06:00:24;;;;;;;28.63;19.33;;;;;;;2.98;100.00;97375.50;4969774;28;20096;-85
2020/12/28 06:02:49;;;;;;;27.67;18.83;;;;;;;2.97;100.00;97371.22;4968208;28;20049;-86
2020/12/28 06:05:17;;;;;;;28.98;20.80;;;;;;;3.00;100.00;97374.28;4970593;28;20042;-86
2020/12/28 06:07:43;;;;;;;27.13;16.88;;;;;;;2.94;100.00;97375.88;4972834;28;20097;-86
2020/12/28 06:10:11;;;;;;;30.02;17.70;;;;;;;2.96;100.00;97373.03;4973788;28;20050;-84
2020/12/28 06:12:37;;;;;;;28.30;18.35;;;;;;;2.98;100.00;97373.66;4973364;28;20073;-85
2020/12/28 06:15:15;;;;;;;31.30;18.42;;;;;;;2.96;100.00;97373.03;4987996;28;20041;-86
2020/12/28 06:17:41;;;;;;;31.58;19.65;;;;;;;2.93;100.00;97381.38;4993208;28;20046;-89
2020/12/28 06:20:07;;;;;;;29.35;17.40;;;;;;;2.94;100.00;97372.44;4991247;28;20395;-85
2020/12/28 06:22:34;;;;;;;31.27;18.45;;;;;;;2.93;100.00;97373.41;4951021;28;20099;-85
2020/12/28 06:25:06;;;;;;;31.95;20.15;;;;;;;2.91;100.00;97386.88;4991313;28;20046;-84
2020/12/28 06:27:31;;;;;;;31.63;17.40;;;;;;;2.87;100.00;97384.81;4957270;28;20522;-88
2020/12/28 06:30:18;;;;;;;26.75;17.98;;;;;;;2.81;100.00;97394.38;4969424;28;20047;-87
2020/12/28 06:32:45;;;;;;;31.85;20.05;;;;;;;2.80;100.00;97394.56;4951498;28;20082;-87
2020/12/28 06:35:13;;;;;;;31.05;20.25;;;;;;;2.79;100.00;97399.06;4933701;28;20414;-84
2020/12/28 06:37:43;;;;;;;31.77;19.98;;;;;;;2.80;100.00;97403.34;4970273;28;20082;-88
2020/12/28 06:40:10;;;;;;;32.90;20.40;;;;;;;2.78;100.00;97401.91;4949744;28;20043;-86
2020/12/28 06:42:38;;;;;;;33.80;21.00;;;;;;;2.77;100.00;97414.31;4936254;28;20775;-83
2020/12/28 06:45:16;;;;;;;33.35;19.40;;;;;;;2.74;100.00;97412.06;4950730;28;20043;-86
2020/12/28 06:47:44;;;;;;;31.33;17.23;;;;;;;2.76;100.00;97401.25;4952133;28;20525;-86
2020/12/28 06:50:11;;;;;;;32.92;20.20;;;;;;;2.74;100.00;97398.84;4969914;28;20065;-87
2020/12/28 06:52:38;;;;;;;33.80;21.35;;;;;;;2.76;100.00;97399.44;4972917;28;20423;-85
2020/12/28 06:55:11;;;;;;;33.78;21.70;;;;;;;2.78;100.00;97402.72;4967338;28;20459;-85
2020/12/28 06:57:37;;;;;;;32.97;21.00;;;;;;;2.77;100.00;97406.38;4953290;28;20120;-85
2020/12/28 07:00:11;;;;;;;36.65;22.55;;;;;;;2.77;100.00;97403.72;4942326;28;20039;-86
2020/12/28 07:02:37;;;;;;;37.15;22.33;;;;;;;2.75;100.00;97402.28;4974156;28;20043;-86
2020/12/28 07:05:03;;;;;;;37.45;21.35;;;;;;;2.75;100.00;97408.41;4957530;28;20071;-84
2020/12/28 07:07:39;;;;;;;35.90;21.20;;;;;;;2.76;100.00;97404.72;4973925;28;20049;-87
2020/12/28 07:10:05;;;;;;;34.63;21.60;;;;;;;2.77;100.00;97403.72;4955914;28;20067;-88
2020/12/28 07:12:31;;;;;;;31.67;19.45;;;;;;;2.77;100.00;97414.31;4940929;28;20431;-88
2020/12/28 07:15:05;;;;;;;33.08;21.00;;;;;;;2.77;100.00;97416.16;4957225;28;20030;-83
2020/12/28 07:17:30;;;;;;;31.42;20.05;;;;;;;2.78;100.00;97423.06;4968566;28;20121;-86
2020/12/28 07:20:11;;;;;;;29.40;18.38;;;;;;;2.77;100.00;97421.44;4956074;28;20129;-84
2020/12/28 07:22:38;;;;;;;32.25;19.25;;;;;;;2.76;100.00;97419.81;4970112;28;20671;-83
2020/12/28 07:25:06;;;;;;;35.30;20.90;;;;;;;2.78;100.00;97429.19;4971251;28;20178;-89
2020/12/28 07:27:32;;;;;;;35.20;20.58;;;;;;;2.81;100.00;97428.78;4967411;28;20589;-86
2020/12/28 07:30:20;;;;;;;31.80;19.27;;;;;;;2.80;100.00;97429.81;4955973;28;20090;-87
2020/12/28 07:32:45;;;;;;;34.60;19.92;;;;;;;2.80;100.00;97442.25;4966884;28;20085;-85
2020/12/28 07:35:12;;;;;;;33.30;20.80;;;;;;;2.79;100.00;97452.03;4949688;28;20441;-88
2020/12/28 07:37:40;;;;;;;35.97;21.98;;;;;;;2.83;100.00;97453.25;4971121;28;20649;-86
2020/12/28 07:40:07;;;;;;;36.83;21.38;;;;;;;2.83;100.00;97458.56;4952847;28;20038;-88
2020/12/28 07:42:33;;;;;;;38.85;23.38;;;;;;;2.83;100.00;97452.44;4955430;28;20046;-86
2020/12/28 07:45:00;;;;;;;39.35;23.65;;;;;;;2.83;100.00;97458.56;4972598;28;20125;-84
2020/12/28 07:47:40;;;;;;;36.25;21.45;;;;;;;2.84;100.00;97464.66;4954722;28;20043;-85
2020/12/28 07:50:07;;;;;;;40.13;23.45;;;;;;;2.86;100.00;97462.63;4972460;28;20385;-88
2020/12/28 07:52:52;;;;;;;36.50;19.33;;;;;;;2.83;100.00;97473.63;4969584;28;20035;-87
2020/12/28 07:55:21;;;;;;;36.67;19.85;;;;;;;2.84;100.00;97477.91;4970958;28;20043;-84
2020/12/28 07:58:08;;;;;;;37.28;20.63;;;;;;;2.84;100.00;97478.72;4954971;28;20035;-86
2020/12/28 08:00:40;;;;;;;39.47;21.25;;;;;;;2.83;100.00;97477.09;4968784;28;20137;-84
2020/12/28 08:03:18;;;;;;;38.53;23.45;;;;;;;2.86;100.00;97483.81;4983955;28;20061;-87
2020/12/28 08:05:44;;;;;;;37.97;23.05;;;;;;;2.88;100.00;97487.09;4985623;28;20050;-87
2020/12/28 08:08:24;;;;;;;32.28;18.27;;;;;;;2.88;100.00;97484.47;4973450;28;20122;-86
2020/12/28 08:11:01;;;;;;;38.03;21.55;;;;;;;2.88;100.00;97484.47;4971541;28;20402;-82
2020/12/28 08:13:32;;;;;;;38.88;19.85;;;;;;;2.86;100.00;97487.28;4970081;28;20054;-87
2020/12/28 08:16:15;;;;;;;34.95;18.92;;;;;;;2.89;100.00;97486.91;4984635;28;20038;-90
2020/12/28 08:18:53;;;;;;;32.33;20.20;;;;;;;2.91;100.00;97482.22;4977266;28;20041;-85
2020/12/28 08:21:19;;;;;;;27.42;16.05;;;;;;;2.90;100.00;97482.41;4968563;28;20053;-86
2020/12/28 08:24:01;;;;;;;31.33;18.38;;;;;;;2.94;100.00;97478.38;4937264;28;20042;-83
2020/12/28 08:26:30;;;;;;;30.30;17.77;;;;;;;2.93;100.00;97479.38;4934808;28;20047;-84
2020/12/28 08:28:58;;;;;;;27.23;17.65;;;;;;;2.95;100.00;97482.66;4966221;28;20074;-84
2020/12/28 08:31:30;;;;;;;27.98;16.20;;;;;;;2.97;100.00;97491.22;4972451;28;20089;-86
2020/12/28 08:34:12;;;;;;;28.02;17.25;;;;;;;3.00;100.00;97490.00;4966750;28;20130;-85
2020/12/28 08:36:41;;;;;;;27.33;16.02;;;;;;;2.98;100.00;97492.03;4929620;28;20388;-84
2020/12/28 08:39:14;;;;;;;25.27;15.83;;;;;;;2.97;100.00;97490.41;4956477;28;20038;-88
2020/12/28 08:41:58;;;;;;;23.48;15.65;;;;;;;2.95;100.00;97490.59;4967343;28;20046;-84
2020/12/28 08:44:37;;;;;;;27.65;14.93;;;;;;;2.96;100.00;97494.88;4986629;28;20511;-86
2020/12/28 08:47:04;;;;;;;;;;;;;;;2.93;100.00;97488.16;4993737;28;20582;-87
2020/12/28 08:49:32;;;;;;;25.48;15.18;;;;;;;2.85;100.00;97488.31;4969710;28;19926;-87
2020/12/28 08:52:12;;;;;;;24.90;15.60;;;;;;;2.87;100.00;97491.56;4988482;28;20034;-85
2020/12/28 08:54:37;;;;;;;26.58;15.75;;;;;;;2.87;100.00;97486.25;4971045;28;20045;-85
2020/12/28 08:57:03;;;;;;;32.15;17.77;;;;;;;2.93;100.00;97490.81;4956343;28;20392;-86
2020/12/28 08:59:29;;;;;;;29.88;18.55;;;;;;;2.92;100.00;97494.44;4969904;28;20043;-83
2020/12/28 09:01:56;;;;;;;25.92;14.00;;;;;;;2.90;100.00;97491.16;4964190;28;20050;-87
2020/12/28 09:04:22;;;;;;;31.38;17.05;;;;;;;2.91;100.00;97492.00;4961372;28;20038;-86
2020/12/28 09:06:48;;;;;;;29.45;17.20;;;;;;;2.94;100.00;97503.03;4964052;28;20543;-88
2020/12/28 09:09:14;;;;;;;29.25;18.73;;;;;;;3.00;100.00;97496.13;4964145;28;20043;-85
2020/12/28 09:11:40;;;;;;;27.00;17.08;;;;;;;3.06;100.00;97489.22;4947453;28;20042;-87
2020/12/28 09:14:05;;;;;;;30.48;17.05;;;;;;;3.10;100.00;97493.91;4947571;28;20431;-88
2020/12/28 09:16:31;;;;;;;29.40;17.20;;;;;;;3.20;100.00;97490.91;4950962;28;21229;-83
2020/12/28 09:18:56;;;;;;;30.25;17.60;;;;;;;3.24;100.00;97492.16;4949347;28;20523;-85
2020/12/28 09:21:22;;;;;;;30.15;16.73;;;;;;;3.24;100.00;97484.19;4950344;28;20562;-88
2020/12/28 09:23:48;;;;;;;24.98;14.88;;;;;;;3.28;100.00;97488.09;4967715;28;20037;-85
2020/12/28 09:26:13;;;;;;;26.23;15.95;;;;;;;3.39;100.00;97476.09;4967314;28;20042;-88
2020/12/28 09:28:38;;;;;;;25.20;16.13;;;;;;;3.50;100.00;97477.34;4958572;28;20042;-87
2020/12/28 09:31:04;;;;;;;24.80;15.18;;;;;;;3.51;100.00;97484.28;4962917;28;20050;-85
2020/12/28 09:33:29;;;;;;;24.40;14.93;;;;;;;3.52;100.00;97485.94;4965239;28;20038;-86
2020/12/28 09:35:55;;;;;;;23.85;14.13;;;;;;;3.59;100.00;97481.44;4939346;28;20038;-88
2020/12/28 09:38:20;;;;;;;20.83;14.75;;;;;;;3.64;100.00;97488.81;4931909;28;20053;-85
2020/12/28 09:40:45;;;;;;;18.90;12.57;;;;;;;3.68;100.00;97493.50;4972237;28;20475;-88
2020/12/28 09:43:11;;;;;;;18.55;11.55;;;;;;;3.71;100.00;97498.44;4968355;28;20046;-87
2020/12/28 09:45:36;;;;;;;17.73;13.10;;;;;;;3.72;100.00;97488.63;4973608;28;20133;-89
2020/12/28 09:48:05;;;;;;;20.42;12.73;;;;;;;3.77;100.00;97502.94;4982569;28;20085;-83
2020/12/28 09:50:31;;;;;;;;;;;;;;;3.81;100.00;97503.34;4987062;28;20101;-87
2020/12/28 09:52:56;;;;;;;19.00;11.32;;;;;;;3.77;100.00;97512.69;4987172;28;19964;-88
2020/12/28 09:55:22;;;;;;;15.98;10.50;;;;;;;3.79;100.00;97513.31;4981818;28;20411;-85
2020/12/28 09:57:50;;;;;;;17.70;11.27;;;;;;;3.85;100.00;97515.16;4987190;28;20042;-85
2020/12/28 10:00:15;;;;;;;14.32;9.80;;;;;;;3.88;100.00;97517.41;4949119;28;20519;-86
2020/12/28 10:02:42;;;;;;;17.52;10.30;;;;;;;3.92;100.00;97515.19;4950972;28;20035;-86
2020/12/28 10:05:09;;;;;;;16.80;10.52;;;;;;;3.89;100.00;97515.59;4946813;28;20051;-87
2020/12/28 10:07:35;;;;;;;14.85;9.88;;;;;;;3.89;100.00;97520.91;4965074;28;20065;-86
2020/12/28 10:10:01;;;;;;;14.15;9.70;;;;;;;3.87;100.00;97514.97;4947902;28;20492;-82
2020/12/28 10:12:27;;;;;;;14.45;10.40;;;;;;;3.93;100.00;97509.66;4946629;28;20118;-87
2020/12/28 10:14:52;;;;;;;13.77;9.10;;;;;;;3.95;100.00;97505.00;4945754;28;20492;-83
2020/12/28 10:17:18;;;;;;;14.25;9.23;;;;;;;3.99;100.00;97506.22;4962749;28;20105;-83
2020/12/28 10:19:43;;;;;;;13.40;9.65;;;;;;;3.93;100.00;97500.91;4948307;28;20093;-87
2020/12/28 10:22:08;;;;;;;13.48;8.30;;;;;;;3.88;100.00;97498.03;4950684;28;20109;-83
2020/12/28 10:24:34;;;;;;;12.65;8.75;;;;;;;3.86;100.00;97503.56;4946223;28;20523;-86
2020/12/28 10:26:59;;;;;;;14.85;8.73;;;;;;;3.92;100.00;97501.94;4947124;28;20411;-89
2020/12/28 10:29:25;;;;;;;10.95;6.97;;;;;;;3.98;100.00;97488.66;4953862;28;20039;-86
2020/12/28 10:31:50;;;;;;;17.23;8.48;;;;;;;4.02;100.00;97473.97;4955867;28;20320;-86
2020/12/28 10:34:16;;;;;;;11.68;8.30;;;;;;;4.10;100.00;97474.78;4967172;28;20836;-87
2020/12/28 10:36:41;;;;;;;9.57;7.30;;;;;;;4.14;100.00;97474.16;4947930;28;20050;-83
2020/12/28 10:39:06;;;;;;;10.77;7.82;;;;;;;4.12;100.00;97481.53;4952140;28;20051;-88
2020/12/28 10:41:32;;;;;;;13.90;8.80;;;;;;;4.07;100.00;97482.13;4951890;28;20448;-90
2020/12/28 10:43:59;;;;;;;12.35;9.65;;;;;;;4.08;100.00;97480.28;4967023;28;20066;-88
2020/12/28 10:46:25;;;;;;;13.25;8.10;;;;;;;4.09;100.00;97479.28;4955006;28;20522;-88
2020/12/28 10:48:51;;;;;;;13.95;9.10;;;;;;;4.09;100.00;97466.03;4969564;28;20053;-86
2020/12/28 10:51:17;;;;;;;13.85;9.02;;;;;;;4.13;100.00;97467.25;4967709;28;20055;-87
2020/12/28 10:53:42;;;;;;;13.63;9.40;;;;;;;4.13;100.00;97469.88;4950527;28;20051;-87
2020/12/28 10:56:08;;;;;;;14.27;9.20;;;;;;;4.17;100.00;97481.75;4964518;28;22906;-85
2020/12/28 10:58:35;;;;;;;12.23;8.88;;;;;;;4.15;100.00;97493.59;4953770;28;20098;-87
2020/12/28 11:01:03;;;;;;;11.52;8.18;;;;;;;4.17;100.00;97497.69;4955100;28;20034;-85
2020/12/28 11:03:29;;;;;;;13.67;9.00;;;;;;;4.18;100.00;97488.69;4951194;28;20074;-84
2020/12/28 11:05:57;;;;;;;11.02;9.13;;;;;;;4.27;100.00;97487.44;4953014;28;20444;-85
2020/12/28 11:08:22;;;;;;;14.05;9.23;;;;;;;4.35;100.00;97494.41;4952072;28;20075;-86
2020/12/28 11:10:48;;;;;;;11.52;7.78;;;;;;;4.38;100.00;97483.38;4952873;28;20059;-85
2020/12/28 11:13:13;;;;;;;13.55;8.75;;;;;;;4.42;100.00;97479.28;4939432;28;20385;-86
2020/12/28 11:15:38;;;;;;;13.85;8.90;;;;;;;4.51;100.00;97477.22;4951802;28;20039;-87
2020/12/28 11:18:05;;;;;;;10.02;7.32;;;;;;;4.49;100.00;97479.28;4935657;28;20053;-86
2020/12/28 11:20:30;;;;;;;10.27;7.30;;;;;;;4.49;100.00;97479.28;4957290;28;20046;-84
2020/12/28 11:22:55;;;;;;;11.07;7.72;;;;;;;4.52;100.00;97476.22;4956127;28;20042;-86